Aviation Digital Data Service (ADDS)

Output produced by TAFs form (0756 UTC 23 October 2014)
found at http://www.aviationweather.gov/adds/tafs/
 
KDEN 230653Z 22004KT 10SM FEW100 SCT220 08/04 A3014 RMK AO2 SLP155 T00830044 402280061
KDEN 230630Z 2307/2412 22008KT P6SM FEW100 SCT200 
     FM231500 VRB05KT P6SM FEW120 BKN220 
     FM231900 08007KT P6SM FEW120 SCT220 
     FM240200 19008KT P6SM FEW120 SCT220 
     FM240500 21012KT P6SM FEW130 BKN220